createdAt,value
2019-04-07T00:02:25.120Z,14.44
2019-04-07T00:04:54.694Z,14.37
2019-04-07T00:07:24.282Z,14.33
2019-04-07T00:09:54.199Z,14.33
2019-04-07T00:12:24.276Z,14.34
2019-04-07T00:14:55.278Z,14.36
2019-04-07T00:17:25.115Z,14.37
2019-04-07T00:19:54.780Z,14.34
2019-04-07T00:22:26.211Z,14.38
2019-04-07T00:24:55.854Z,14.33
2019-04-07T00:27:25.723Z,14.36
2019-04-07T00:29:55.496Z,14.37
2019-04-07T00:32:25.022Z,14.27
2019-04-07T00:34:55.237Z,14.27
2019-04-07T00:37:26.367Z,14.27
2019-04-07T00:39:56.632Z,14.28
2019-04-07T00:42:27.405Z,14.17
2019-04-07T00:44:57.051Z,14.26
2019-04-07T00:47:26.645Z,14.22
2019-04-07T00:49:56.216Z,14.22
2019-04-07T00:52:25.786Z,14.25
2019-04-07T00:54:56.492Z,14.32
2019-04-07T00:57:26.390Z,14.26
2019-04-07T00:59:56.121Z,14.22
2019-04-07T01:02:26.027Z,14.20
2019-04-07T01:04:57.343Z,14.00
2019-04-07T01:07:26.929Z,14.16
2019-04-07T01:09:56.570Z,14.07
2019-04-07T01:12:27.049Z,14.10
2019-04-07T01:14:57.140Z,14.11
2019-04-07T01:17:26.943Z,14.08
2019-04-07T01:19:56.540Z,13.96
2019-04-07T01:22:26.592Z,13.94
2019-04-07T01:24:56.282Z,13.90
2019-04-07T01:27:25.910Z,13.88
2019-04-07T01:29:55.417Z,13.77
2019-04-07T01:32:25.781Z,13.73
2019-04-07T01:34:55.904Z,13.69
2019-04-07T01:37:25.508Z,13.72
2019-04-07T01:39:55.110Z,13.68
2019-04-07T01:42:32.302Z,13.62
2019-04-07T01:45:20.518Z,13.46
2019-04-07T01:47:52.307Z,13.48
2019-04-07T01:50:23.295Z,13.55
2019-04-07T01:52:57.199Z,13.57
2019-04-07T01:55:26.862Z,13.43
2019-04-07T01:58:10.799Z,13.36
2019-04-07T02:01:00.401Z,13.49
2019-04-07T02:03:48.411Z,13.42
2019-04-07T02:06:19.873Z,13.54
2019-04-07T02:09:07.150Z,13.33
2019-04-07T02:11:38.632Z,13.33
2019-04-07T02:14:10.169Z,13.42
2019-04-07T02:16:50.156Z,13.09
2019-04-07T02:19:22.608Z,13.18
2019-04-07T02:21:58.360Z,13.22
2019-04-07T02:24:38.863Z,13.38
2019-04-07T02:27:16.425Z,13.25
2019-04-07T02:29:47.820Z,13.15
2019-04-07T02:32:21.569Z,13.30
2019-04-07T02:35:08.970Z,13.16
2019-04-07T02:37:40.984Z,13.19
2019-04-07T02:40:14.252Z,13.03
2019-04-07T02:42:48.704Z,13.09
2019-04-07T02:45:19.991Z,13.09
2019-04-07T02:48:10.740Z,13.08
2019-04-07T02:50:57.258Z,13.20
2019-04-07T02:53:30.867Z,13.25
2019-04-07T02:56:18.407Z,13.32
2019-04-07T02:58:47.905Z,13.32
2019-04-07T03:01:22.091Z,13.27
2019-04-07T03:06:45.790Z,13.22
2019-04-07T03:09:28.149Z,13.15
2019-04-07T03:12:15.483Z,13.06
2019-04-07T03:14:55.948Z,13.13
2019-04-07T03:17:43.694Z,13.09
2019-04-07T03:20:13.325Z,12.96
2019-04-07T03:23:01.900Z,13.02
2019-04-07T03:25:37.128Z,12.95
2019-04-07T03:28:10.861Z,13.10
2019-04-07T03:30:45.405Z,13.13
2019-04-07T03:33:32.495Z,13.00
2019-04-07T03:36:06.718Z,12.95
2019-04-07T03:38:41.194Z,12.91
2019-04-07T03:41:14.052Z,12.98
2019-04-07T03:43:46.336Z,12.93
2019-04-07T03:46:23.337Z,12.89
2019-04-07T03:48:53.641Z,12.91
2019-04-07T03:51:24.977Z,12.87
2019-04-07T03:53:59.408Z,12.77
2019-04-07T03:56:30.789Z,12.86
2019-04-07T03:59:01.982Z,12.74
2019-04-07T04:01:33.701Z,12.75
2019-04-07T04:04:05.669Z,12.75
2019-04-07T04:06:53.408Z,12.82
2019-04-07T04:09:40.754Z,12.75
2019-04-07T04:12:13.616Z,12.84
2019-04-07T04:14:51.048Z,12.84
2019-04-07T04:17:22.943Z,12.78
2019-04-07T04:19:52.644Z,12.70
2019-04-07T04:22:22.975Z,12.70
2019-04-07T04:24:53.487Z,12.65
2019-04-07T04:27:23.821Z,12.72
2019-04-07T04:29:55.215Z,12.67
2019-04-07T04:32:25.560Z,12.69
2019-04-07T04:34:55.204Z,12.62
2019-04-07T04:37:36.058Z,12.60
2019-04-07T04:39:56.147Z,12.68
2019-04-07T04:42:26.654Z,12.54
2019-04-07T04:44:56.401Z,12.60
2019-04-07T04:47:26.000Z,12.61
2019-04-07T04:49:57.492Z,12.61
2019-04-07T04:52:27.750Z,12.64
2019-04-07T04:54:57.495Z,12.72
2019-04-07T04:57:27.170Z,12.58
2019-04-07T04:59:56.809Z,12.56
2019-04-07T05:02:27.540Z,12.61
2019-04-07T05:04:57.521Z,12.58
2019-04-07T05:07:27.050Z,12.67
2019-04-07T05:09:56.827Z,12.45
2019-04-07T05:12:26.488Z,12.53
2019-04-07T05:14:56.164Z,12.38
2019-04-07T05:17:26.023Z,12.39
2019-04-07T05:19:56.535Z,12.57
2019-04-07T05:22:26.749Z,12.67
2019-04-07T05:24:56.729Z,12.61
2019-04-07T05:27:26.275Z,12.64
2019-04-07T05:29:55.850Z,12.43
2019-04-07T05:32:25.434Z,12.51
2019-04-07T05:34:55.624Z,12.54
2019-04-07T05:37:25.343Z,12.53
2019-04-07T05:39:55.047Z,12.36
2019-04-07T05:42:24.675Z,12.01
2019-04-07T05:44:55.246Z,12.17
2019-04-07T05:47:25.500Z,11.86
2019-04-07T05:49:58.489Z,11.77
2019-04-07T05:52:27.193Z,11.67
2019-04-07T05:54:58.977Z,11.68
2019-04-07T05:57:32.517Z,11.66
2019-04-07T06:00:00.419Z,11.71
2019-04-07T06:02:33.367Z,11.76
2019-04-07T06:05:01.311Z,11.87
2019-04-07T06:07:32.539Z,12.18
2019-04-07T06:10:02.440Z,12.20
2019-04-07T06:12:32.885Z,12.39
2019-04-07T06:15:02.438Z,12.61
2019-04-07T06:17:32.017Z,12.82
2019-04-07T06:20:01.623Z,12.89
2019-04-07T06:22:31.194Z,13.00
2019-04-07T06:25:02.749Z,13.05
2019-04-07T06:27:32.532Z,13.09
2019-04-07T06:30:02.487Z,13.10
2019-04-07T06:32:35.214Z,13.24
2019-04-07T06:35:05.370Z,13.29
2019-04-07T06:37:37.403Z,13.35
2019-04-07T06:40:08.115Z,13.26
2019-04-07T06:42:37.711Z,13.32
2019-04-07T06:45:10.928Z,13.42
2019-04-07T06:47:48.629Z,13.52
2019-04-07T06:50:31.447Z,13.34
2019-04-07T06:53:17.190Z,13.34
2019-04-07T06:56:04.121Z,13.58
2019-04-07T06:58:38.806Z,13.71
2019-04-07T07:01:17.495Z,13.70
2019-04-07T07:04:00.435Z,13.80
2019-04-07T07:06:49.431Z,13.83
2019-04-07T07:09:30.685Z,13.96
2019-04-07T07:12:02.060Z,13.79
2019-04-07T07:14:41.561Z,13.93
2019-04-07T07:17:05.436Z,14.06
2019-04-07T07:19:39.250Z,14.12
2019-04-07T07:22:22.404Z,14.15
2019-04-07T07:24:56.433Z,14.08
2019-04-07T07:27:25.094Z,14.18
2019-04-07T07:29:55.546Z,14.30
2019-04-07T07:32:25.900Z,14.29
2019-04-07T07:34:55.573Z,14.24
2019-04-07T07:37:26.191Z,14.38
2019-04-07T07:39:57.493Z,14.43
2019-04-07T07:42:27.711Z,14.44
2019-04-07T07:44:58.287Z,14.34
2019-04-07T07:47:27.863Z,14.48
2019-04-07T07:49:58.644Z,14.46
2019-04-07T07:52:28.732Z,14.45
2019-04-07T07:55:00.917Z,14.59
2019-04-07T07:57:30.497Z,14.62
2019-04-07T08:00:00.434Z,14.79
2019-04-07T08:02:31.907Z,14.84
2019-04-07T08:05:01.848Z,14.90
2019-04-07T08:07:31.559Z,15.02
2019-04-07T08:10:01.500Z,15.07
2019-04-07T08:12:34.292Z,15.09
2019-04-07T08:15:03.117Z,15.14
2019-04-07T08:17:33.900Z,15.17
2019-04-07T08:20:04.583Z,15.10
2019-04-07T08:22:40.629Z,15.26
2019-04-07T08:25:07.059Z,15.33
2019-04-07T08:27:36.621Z,15.25
2019-04-07T08:30:11.822Z,15.37
2019-04-07T08:32:41.173Z,15.45
2019-04-07T08:35:10.877Z,15.47
2019-04-07T08:37:40.615Z,15.57
2019-04-07T08:40:10.884Z,15.70
2019-04-07T08:42:41.176Z,15.75
2019-04-07T08:45:11.507Z,15.79
2019-04-07T08:47:41.090Z,15.72
2019-04-07T08:50:10.866Z,15.80
2019-04-07T08:52:42.490Z,15.79
2019-04-07T08:55:12.812Z,15.89
2019-04-07T08:57:42.503Z,15.97
2019-04-07T09:00:21.968Z,16.13
2019-04-07T09:03:01.828Z,15.92
2019-04-07T09:05:27.647Z,15.89
2019-04-07T09:07:55.034Z,15.78
2019-04-07T09:10:42.025Z,15.98
2019-04-07T09:13:12.134Z,16.14
2019-04-07T09:15:44.115Z,16.07
2019-04-07T09:18:18.012Z,16.23
2019-04-07T09:21:05.100Z,16.28
2019-04-07T09:23:42.580Z,16.43
2019-04-07T09:26:21.739Z,16.52
2019-04-07T09:29:08.521Z,16.57
2019-04-07T09:31:41.038Z,16.63
2019-04-07T09:34:12.872Z,16.71
2019-04-07T09:36:50.118Z,16.58
2019-04-07T09:39:50.733Z,16.61
2019-04-07T09:42:05.349Z,16.64
2019-04-07T09:44:50.635Z,16.69
2019-04-07T09:47:34.707Z,16.85
2019-04-07T09:50:26.780Z,17.04
2019-04-07T09:52:54.850Z,17.09
2019-04-07T09:55:26.580Z,17.04
2019-04-07T09:58:13.475Z,17.24
2019-04-07T10:00:42.823Z,17.05
2019-04-07T10:03:15.424Z,17.38
2019-04-07T10:06:01.710Z,17.39
2019-04-07T10:08:40.607Z,17.44
2019-04-07T10:11:14.742Z,17.67
2019-04-07T10:13:46.386Z,17.72
2019-04-07T10:16:18.556Z,17.70
2019-04-07T10:18:50.961Z,17.86
2019-04-07T10:21:22.156Z,17.93
2019-04-07T10:24:08.704Z,18.03
2019-04-07T10:26:39.907Z,17.69
2019-04-07T10:29:20.543Z,17.47
2019-04-07T10:31:56.597Z,17.94
2019-04-07T10:34:28.634Z,17.87
2019-04-07T10:37:04.794Z,17.84
2019-04-07T10:39:48.311Z,17.79
2019-04-07T10:42:22.048Z,17.91
2019-04-07T10:44:53.768Z,17.83
2019-04-07T10:47:27.992Z,18.01
2019-04-07T10:50:15.407Z,18.19
2019-04-07T10:52:46.996Z,18.46
2019-04-07T10:55:37.941Z,18.47
2019-04-07T10:58:07.357Z,18.57
2019-04-07T11:00:42.484Z,18.36
2019-04-07T11:03:14.234Z,18.52
2019-04-07T11:05:49.364Z,18.75
2019-04-07T11:08:23.396Z,18.73
2019-04-07T11:11:03.464Z,18.77
2019-04-07T11:13:40.430Z,18.94
2019-04-07T11:16:15.840Z,19.06
2019-04-07T11:19:03.375Z,18.99
2019-04-07T11:21:43.439Z,18.93
2019-04-07T11:24:18.802Z,18.96
2019-04-07T11:26:56.820Z,19.07
2019-04-07T11:29:39.150Z,19.32
2019-04-07T11:32:10.291Z,19.02
2019-04-07T11:34:41.759Z,19.30
2019-04-07T11:37:21.945Z,19.52
2019-04-07T11:40:06.280Z,19.71
2019-04-07T11:42:46.502Z,19.65
2019-04-07T11:45:21.030Z,19.74
2019-04-07T11:48:08.674Z,19.80
2019-04-07T11:50:42.387Z,20.04
2019-04-07T11:53:21.210Z,19.94
2019-04-07T11:55:55.079Z,20.02
2019-04-07T11:58:36.196Z,19.87
2019-04-07T12:01:19.517Z,20.01
2019-04-07T12:03:54.721Z,20.10
2019-04-07T12:06:30.327Z,19.83
2019-04-07T12:09:00.984Z,19.35
2019-04-07T12:11:46.358Z,19.31
2019-04-07T12:14:29.455Z,19.45
2019-04-07T12:17:06.984Z,19.48
2019-04-07T12:19:39.751Z,19.69
2019-04-07T12:22:13.137Z,20.22
2019-04-07T12:24:45.610Z,20.37
2019-04-07T12:27:31.831Z,20.37
2019-04-07T12:30:03.034Z,20.18
2019-04-07T12:32:50.854Z,20.52
2019-04-07T12:35:32.581Z,20.63
2019-04-07T12:38:12.534Z,20.69
2019-04-07T12:41:14.351Z,20.57
2019-04-07T12:43:45.836Z,20.75
2019-04-07T12:46:16.546Z,20.62
2019-04-07T12:48:50.331Z,20.84
2019-04-07T12:51:27.702Z,21.01
2019-04-07T12:54:09.213Z,21.12
2019-04-07T12:56:45.642Z,21.19
2019-04-07T12:59:19.195Z,21.28
2019-04-07T13:01:50.988Z,21.41
2019-04-07T13:04:31.801Z,21.39
2019-04-07T13:07:03.485Z,21.59
2019-04-07T13:09:37.421Z,21.59
2019-04-07T13:12:11.856Z,21.41
2019-04-07T13:14:43.987Z,21.75
2019-04-07T13:17:25.004Z,21.84
2019-04-07T13:19:59.075Z,21.85
2019-04-07T13:22:36.475Z,22.19
2019-04-07T13:25:22.590Z,22.16
2019-04-07T13:27:56.669Z,22.38
2019-04-07T13:30:44.471Z,22.56
2019-04-07T13:33:16.437Z,22.86
2019-04-07T13:35:53.513Z,22.75
2019-04-07T13:38:27.188Z,22.66
2019-04-07T13:41:04.097Z,23.04
2019-04-07T13:43:42.317Z,24.09
2019-04-07T13:46:22.219Z,24.41
2019-04-07T13:49:08.416Z,24.79
2019-04-07T13:51:37.711Z,24.63
2019-04-07T13:54:29.594Z,24.88
2019-04-07T13:57:16.633Z,24.12
2019-04-07T14:00:04.133Z,24.70
2019-04-07T14:02:33.759Z,24.56
2019-04-07T14:05:21.230Z,24.99
2019-04-07T14:07:58.897Z,24.51
2019-04-07T14:10:36.957Z,23.78
2019-04-07T14:13:07.626Z,23.56
2019-04-07T14:15:53.991Z,24.14
2019-04-07T14:18:32.038Z,25.22
2019-04-07T14:21:04.003Z,26.79
2019-04-07T14:23:52.159Z,27.47
2019-04-07T14:26:25.815Z,31.23
2019-04-07T14:29:13.175Z,34.43
2019-04-07T14:31:44.460Z,29.97
2019-04-07T14:34:27.415Z,28.33
2019-04-07T14:37:00.026Z,26.36
2019-04-07T14:39:39.064Z,33.06
2019-04-07T14:42:27.398Z,34.58
2019-04-07T14:45:07.798Z,32.86
2019-04-07T14:47:39.019Z,38.10
2019-04-07T14:50:23.218Z,40.76
2019-04-07T14:53:03.218Z,39.31
2019-04-07T14:55:41.147Z,40.08
2019-04-07T14:58:29.180Z,39.27
2019-04-07T15:01:10.742Z,42.94
2019-04-07T15:03:40.653Z,44.33
2019-04-07T15:06:10.924Z,44.66
2019-04-07T15:08:43.217Z,44.60
2019-04-07T15:11:22.025Z,44.51
2019-04-07T15:13:51.809Z,45.90
2019-04-07T15:16:22.780Z,44.47
2019-04-07T15:18:53.348Z,43.76
2019-04-07T15:21:23.873Z,44.65
2019-04-07T15:23:53.467Z,43.96
2019-04-07T15:26:23.596Z,44.27
2019-04-07T15:28:53.297Z,43.54
2019-04-07T15:31:23.148Z,43.68
2019-04-07T15:33:52.806Z,45.68
2019-04-07T15:36:23.209Z,46.11
2019-04-07T15:38:55.405Z,45.72
2019-04-07T15:41:24.125Z,45.74
2019-04-07T15:43:55.171Z,45.37
2019-04-07T15:46:25.670Z,45.56
2019-04-07T15:48:56.693Z,45.15
2019-04-07T15:51:26.682Z,45.28
2019-04-07T15:53:56.559Z,44.84
2019-04-07T15:56:27.081Z,43.48
2019-04-07T15:59:00.063Z,43.36
2019-04-07T16:01:28.977Z,44.60
2019-04-07T16:03:59.206Z,44.33
2019-04-07T16:06:28.849Z,43.82
2019-04-07T16:09:00.200Z,43.26
2019-04-07T16:11:30.731Z,43.68
2019-04-07T16:14:00.349Z,42.44
2019-04-07T16:16:30.755Z,41.31
2019-04-07T16:19:01.207Z,40.51
2019-04-07T16:21:33.118Z,41.20
2019-04-07T16:24:02.935Z,35.84
2019-04-07T16:26:35.730Z,32.43
2019-04-07T16:29:03.769Z,30.01
2019-04-07T16:31:33.382Z,28.88
2019-04-07T16:34:05.765Z,27.91
2019-04-07T16:36:35.176Z,26.96
2019-04-07T16:39:09.597Z,26.16
2019-04-07T16:41:39.343Z,25.68
2019-04-07T16:44:10.565Z,25.19
2019-04-07T16:46:40.191Z,24.72
2019-04-07T16:49:11.515Z,24.55
2019-04-07T16:51:41.065Z,24.46
2019-04-07T16:54:11.782Z,24.20
2019-04-07T16:56:41.457Z,23.85
2019-04-07T16:59:11.012Z,23.55
2019-04-07T17:01:42.282Z,23.51
2019-04-07T17:04:12.662Z,23.03
2019-04-07T17:06:42.267Z,23.02
2019-04-07T17:09:23.073Z,22.79
2019-04-07T17:11:51.558Z,22.71
2019-04-07T17:14:21.230Z,22.55
2019-04-07T17:19:20.135Z,22.29
2019-04-07T17:21:50.131Z,22.27
2019-04-07T17:24:19.758Z,22.22
2019-04-07T17:26:49.786Z,22.15
2019-04-07T17:29:21.403Z,22.12
2019-04-07T17:31:50.884Z,21.95
2019-04-07T17:34:20.588Z,21.88
2019-04-07T17:36:55.371Z,21.69
2019-04-07T17:39:24.589Z,21.62
2019-04-07T17:41:57.234Z,21.53
2019-04-07T17:44:47.909Z,21.55
2019-04-07T17:47:31.196Z,21.34
2019-04-07T17:50:00.969Z,21.26
2019-04-07T17:52:48.235Z,21.00
2019-04-07T17:55:26.068Z,21.01
2019-04-07T17:57:55.296Z,20.81
2019-04-07T18:00:43.352Z,20.82
2019-04-07T18:03:31.380Z,20.80
2019-04-07T18:06:06.251Z,20.64
2019-04-07T18:09:03.982Z,20.75
2019-04-07T18:11:35.690Z,20.76
2019-04-07T18:14:05.771Z,20.76
2019-04-07T18:16:37.822Z,20.65
2019-04-07T18:19:09.764Z,20.59
2019-04-07T18:21:51.934Z,20.61
2019-04-07T18:24:30.098Z,20.64
2019-04-07T18:27:12.583Z,20.58
2019-04-07T18:29:41.731Z,20.49
2019-04-07T18:32:13.350Z,20.37
2019-04-07T18:34:45.062Z,20.36
2019-04-07T18:37:16.897Z,20.33
2019-04-07T18:39:55.045Z,20.29
2019-04-07T18:42:36.110Z,20.28
2019-04-07T18:45:21.895Z,20.28
2019-04-07T18:48:09.304Z,20.27
2019-04-07T18:50:48.149Z,20.14
2019-04-07T18:53:20.605Z,20.21
2019-04-07T18:55:54.277Z,20.14
2019-04-07T18:58:31.507Z,20.10
2019-04-07T19:01:14.695Z,20.10
2019-04-07T19:03:44.037Z,20.06
2019-04-07T19:06:20.152Z,20.01
2019-04-07T19:09:01.462Z,19.91
2019-04-07T19:11:49.849Z,19.93
2019-04-07T19:14:38.026Z,19.76
2019-04-07T19:17:00.770Z,19.80
2019-04-07T19:19:37.513Z,19.74
2019-04-07T19:22:11.410Z,19.71
2019-04-07T19:24:43.902Z,19.41
2019-04-07T19:27:31.773Z,19.39
2019-04-07T19:30:11.592Z,19.47
2019-04-07T19:32:57.915Z,19.43
2019-04-07T19:35:43.234Z,19.38
2019-04-07T19:38:30.120Z,19.29
2019-04-07T19:41:01.473Z,19.15
2019-04-07T19:43:53.164Z,19.16
2019-04-07T19:46:29.459Z,19.01
2019-04-07T19:49:01.170Z,19.12
2019-04-07T19:51:35.291Z,19.12
2019-04-07T19:54:23.571Z,19.09
2019-04-07T19:57:11.237Z,18.88
2019-04-07T19:59:48.513Z,18.96
2019-04-07T20:02:30.524Z,18.89
2019-04-07T20:05:18.473Z,18.80
2019-04-07T20:07:46.258Z,18.89
2019-04-07T20:10:21.530Z,18.83
2019-04-07T20:13:10.054Z,18.84
2019-04-07T20:15:57.816Z,18.80
2019-04-07T20:18:29.546Z,18.42
2019-04-07T20:21:02.977Z,18.42
2019-04-07T20:23:33.498Z,18.46
2019-04-07T20:26:08.397Z,18.60
2019-04-07T20:28:41.996Z,18.42
2019-04-07T20:31:22.489Z,18.28
2019-04-07T20:34:08.515Z,18.27
2019-04-07T20:36:54.916Z,18.45
2019-04-07T20:39:39.984Z,18.34
2019-04-07T20:42:27.468Z,18.32
2019-04-07T20:45:02.418Z,18.39
2019-04-07T20:47:32.514Z,18.27
2019-04-07T20:50:19.973Z,18.21
2019-04-07T20:53:08.372Z,18.10
2019-04-07T20:55:30.890Z,18.13
2019-04-07T20:58:16.058Z,17.90
2019-04-07T21:00:37.278Z,17.83
2019-04-07T21:03:25.201Z,17.83
2019-04-07T21:06:14.682Z,17.88
2019-04-07T21:08:48.796Z,17.81
2019-04-07T21:11:29.118Z,17.82
2019-04-07T21:14:00.861Z,17.69
2019-04-07T21:16:34.973Z,17.81
2019-04-07T21:19:13.397Z,17.74
2019-04-07T21:21:50.550Z,17.69
2019-04-07T21:24:21.772Z,17.68
2019-04-07T21:27:10.755Z,17.76
2019-04-07T21:29:47.715Z,17.81
2019-04-07T21:32:22.755Z,17.58
2019-04-07T21:35:03.160Z,17.61
2019-04-07T21:37:40.699Z,17.48
2019-04-07T21:40:14.322Z,17.51
2019-04-07T21:43:02.671Z,17.48
2019-04-07T21:45:41.120Z,17.27
2019-04-07T21:48:28.695Z,17.25
2019-04-07T21:51:00.235Z,17.45
2019-04-07T21:53:36.875Z,17.39
2019-04-07T21:56:24.150Z,17.43
2019-04-07T21:59:13.983Z,17.29
2019-04-07T22:01:57.346Z,17.46
2019-04-07T22:04:36.159Z,17.25
2019-04-07T22:07:07.471Z,17.27
2019-04-07T22:09:38.691Z,17.24
2019-04-07T22:12:08.512Z,17.09
2019-04-07T22:14:40.893Z,17.00
2019-04-07T22:17:09.491Z,17.21
2019-04-07T22:19:44.116Z,17.26
2019-04-07T22:22:10.874Z,17.06
2019-04-07T22:24:40.508Z,17.08
2019-04-07T22:27:10.089Z,17.01
2019-04-07T22:29:39.698Z,16.81
2019-04-07T22:32:09.238Z,16.62
2019-04-07T22:34:38.921Z,16.80
2019-04-07T22:37:08.469Z,16.77
2019-04-07T22:39:39.761Z,16.70
2019-04-07T22:42:12.783Z,16.73
2019-04-07T22:44:40.702Z,16.72
2019-04-07T22:47:13.085Z,16.59
2019-04-07T22:49:41.646Z,16.60
2019-04-07T22:52:11.777Z,16.47
2019-04-07T22:54:42.227Z,16.17
2019-04-07T22:57:14.424Z,15.91
2019-04-07T22:59:43.178Z,16.16
2019-04-07T23:02:13.674Z,16.15
2019-04-07T23:04:43.322Z,15.86
2019-04-07T23:07:13.615Z,16.15
2019-04-07T23:09:43.489Z,16.28
2019-04-07T23:12:13.020Z,16.25
2019-04-07T23:14:42.590Z,16.16
2019-04-07T23:17:12.156Z,15.98
2019-04-07T23:19:41.980Z,15.96
2019-04-07T23:22:11.874Z,15.93
2019-04-07T23:24:41.531Z,15.74
2019-04-07T23:27:11.154Z,16.07
2019-04-07T23:29:40.716Z,16.16
2019-04-07T23:32:10.299Z,15.93
2019-04-07T23:34:41.525Z,15.91
2019-04-07T23:37:12.738Z,15.85
2019-04-07T23:39:42.317Z,15.86
2019-04-07T23:42:12.571Z,16.06
2019-04-07T23:44:42.274Z,15.93
2019-04-07T23:47:11.924Z,15.85
2019-04-07T23:49:42.651Z,15.96
2019-04-07T23:52:12.276Z,15.99
2019-04-07T23:54:43.094Z,15.78
2019-04-07T23:57:13.434Z,15.68
2019-04-07T23:59:43.021Z,15.88
